sensor_id;sensor_type;location;lat;lon;timestamp;P1;durP1;ratioP1;P2;durP2;ratioP2
38909;SDS011;24676;51.360;12.354;2023-04-02T00:01:15;2.50;;;1.08;;
38909;SDS011;24676;51.360;12.354;2023-04-02T00:07:24;0.93;;;0.60;;
38909;SDS011;24676;51.360;12.354;2023-04-02T00:10:29;1.83;;;1.15;;
38909;SDS011;24676;51.360;12.354;2023-04-02T00:15:59;2.05;;;1.95;;
38909;SDS011;24676;51.360;12.354;2023-04-02T00:18:47;2.55;;;1.10;;
38909;SDS011;24676;51.360;12.354;2023-04-02T00:21:35;1.95;;;1.20;;
38909;SDS011;24676;51.360;12.354;2023-04-02T00:24:21;3.58;;;1.70;;
38909;SDS011;24676;51.360;12.354;2023-04-02T00:27:09;3.35;;;1.40;;
38909;SDS011;24676;51.360;12.354;2023-04-02T00:29:55;1.58;;;1.00;;
38909;SDS011;24676;51.360;12.354;2023-04-02T00:32:41;1.25;;;0.88;;
38909;SDS011;24676;51.360;12.354;2023-04-02T00:35:27;2.10;;;1.83;;
38909;SDS011;24676;51.360;12.354;2023-04-02T00:41:12;0.95;;;0.93;;
38909;SDS011;24676;51.360;12.354;2023-04-02T00:44:01;1.45;;;0.88;;
38909;SDS011;24676;51.360;12.354;2023-04-02T00:46:46;1.30;;;0.93;;
38909;SDS011;24676;51.360;12.354;2023-04-02T00:49:35;1.55;;;1.00;;
38909;SDS011;24676;51.360;12.354;2023-04-02T00:52:22;1.55;;;1.30;;
38909;SDS011;24676;51.360;12.354;2023-04-02T00:58:25;1.52;;;1.35;;
38909;SDS011;24676;51.360;12.354;2023-04-02T01:01:16;1.60;;;1.27;;
38909;SDS011;24676;51.360;12.354;2023-04-02T01:04:23;0.52;;;0.50;;
38909;SDS011;24676;51.360;12.354;2023-04-02T01:07:16;3.05;;;1.60;;
38909;SDS011;24676;51.360;12.354;2023-04-02T01:12:56;1.10;;;0.80;;
38909;SDS011;24676;51.360;12.354;2023-04-02T01:22:51;3.45;;;1.13;;
38909;SDS011;24676;51.360;12.354;2023-04-02T01:25:59;1.20;;;1.10;;
38909;SDS011;24676;51.360;12.354;2023-04-02T01:29:09;2.28;;;1.88;;
38909;SDS011;24676;51.360;12.354;2023-04-02T01:31:58;3.45;;;1.83;;
38909;SDS011;24676;51.360;12.354;2023-04-02T01:34:45;1.27;;;1.27;;
38909;SDS011;24676;51.360;12.354;2023-04-02T01:37:51;2.67;;;1.75;;
38909;SDS011;24676;51.360;12.354;2023-04-02T01:40:49;1.92;;;1.77;;
38909;SDS011;24676;51.360;12.354;2023-04-02T01:46:32;2.10;;;1.23;;
38909;SDS011;24676;51.360;12.354;2023-04-02T01:49:19;1.65;;;1.40;;
38909;SDS011;24676;51.360;12.354;2023-04-02T01:52:05;2.35;;;0.90;;
38909;SDS011;24676;51.360;12.354;2023-04-02T01:54:50;2.17;;;1.45;;
38909;SDS011;24676;51.360;12.354;2023-04-02T01:57:35;1.33;;;1.23;;
38909;SDS011;24676;51.360;12.354;2023-04-02T02:00:20;4.20;;;1.75;;
38909;SDS011;24676;51.360;12.354;2023-04-02T02:03:05;1.10;;;1.10;;
38909;SDS011;24676;51.360;12.354;2023-04-02T02:05:52;2.20;;;1.08;;
38909;SDS011;24676;51.360;12.354;2023-04-02T02:08:39;3.47;;;1.77;;
38909;SDS011;24676;51.360;12.354;2023-04-02T02:11:35;2.17;;;1.98;;
38909;SDS011;24676;51.360;12.354;2023-04-02T02:14:24;1.45;;;0.80;;
38909;SDS011;24676;51.360;12.354;2023-04-02T02:17:10;3.28;;;1.75;;
38909;SDS011;24676;51.360;12.354;2023-04-02T02:19:58;3.00;;;1.83;;
38909;SDS011;24676;51.360;12.354;2023-04-02T02:22:45;2.83;;;1.60;;
38909;SDS011;24676;51.360;12.354;2023-04-02T02:25:32;2.45;;;1.65;;
38909;SDS011;24676;51.360;12.354;2023-04-02T02:28:25;3.45;;;1.58;;
38909;SDS011;24676;51.360;12.354;2023-04-02T02:31:17;1.45;;;1.05;;
38909;SDS011;24676;51.360;12.354;2023-04-02T02:34:17;2.00;;;1.83;;
38909;SDS011;24676;51.360;12.354;2023-04-02T02:37:11;1.38;;;1.20;;
38909;SDS011;24676;51.360;12.354;2023-04-02T02:40:00;1.95;;;1.73;;
38909;SDS011;24676;51.360;12.354;2023-04-02T02:42:51;1.92;;;1.38;;
38909;SDS011;24676;51.360;12.354;2023-04-02T02:45:42;1.57;;;0.93;;
38909;SDS011;24676;51.360;12.354;2023-04-02T02:48:36;1.50;;;1.40;;
38909;SDS011;24676;51.360;12.354;2023-04-02T02:51:29;1.67;;;1.13;;
38909;SDS011;24676;51.360;12.354;2023-04-02T02:54:24;2.22;;;1.38;;
38909;SDS011;24676;51.360;12.354;2023-04-02T02:57:13;2.60;;;1.40;;
38909;SDS011;24676;51.360;12.354;2023-04-02T03:00:03;2.17;;;1.75;;
38909;SDS011;24676;51.360;12.354;2023-04-02T03:02:50;6.25;;;1.98;;
38909;SDS011;24676;51.360;12.354;2023-04-02T03:05:37;3.08;;;1.65;;
38909;SDS011;24676;51.360;12.354;2023-04-02T03:08:24;2.92;;;1.92;;
38909;SDS011;24676;51.360;12.354;2023-04-02T03:11:34;2.45;;;1.17;;
38909;SDS011;24676;51.360;12.354;2023-04-02T03:14:29;5.55;;;2.13;;
38909;SDS011;24676;51.360;12.354;2023-04-02T03:17:33;5.03;;;3.05;;
38909;SDS011;24676;51.360;12.354;2023-04-02T03:23:31;2.97;;;1.55;;
38909;SDS011;24676;51.360;12.354;2023-04-02T03:26:26;4.20;;;2.40;;
38909;SDS011;24676;51.360;12.354;2023-04-02T03:29:19;4.45;;;1.42;;
38909;SDS011;24676;51.360;12.354;2023-04-02T03:32:15;2.15;;;1.48;;
38909;SDS011;24676;51.360;12.354;2023-04-02T03:41:04;2.57;;;2.37;;
38909;SDS011;24676;51.360;12.354;2023-04-02T03:43:53;2.13;;;1.80;;
38909;SDS011;24676;51.360;12.354;2023-04-02T03:46:46;4.43;;;2.85;;
38909;SDS011;24676;51.360;12.354;2023-04-02T03:49:45;3.65;;;2.15;;
38909;SDS011;24676;51.360;12.354;2023-04-02T03:52:38;5.80;;;2.22;;
38909;SDS011;24676;51.360;12.354;2023-04-02T03:55:27;6.85;;;2.40;;
38909;SDS011;24676;51.360;12.354;2023-04-02T04:01:26;11.93;;;1.88;;
38909;SDS011;24676;51.360;12.354;2023-04-02T04:04:17;3.40;;;2.10;;
38909;SDS011;24676;51.360;12.354;2023-04-02T04:07:02;4.57;;;2.90;;
38909;SDS011;24676;51.360;12.354;2023-04-02T04:09:47;1.95;;;1.73;;
38909;SDS011;24676;51.360;12.354;2023-04-02T04:12:35;2.45;;;1.40;;
38909;SDS011;24676;51.360;12.354;2023-04-02T04:15:29;2.25;;;2.05;;
38909;SDS011;24676;51.360;12.354;2023-04-02T04:21:24;4.82;;;2.03;;
38909;SDS011;24676;51.360;12.354;2023-04-02T04:24:21;4.20;;;3.03;;
38909;SDS011;24676;51.360;12.354;2023-04-02T04:27:23;5.22;;;2.60;;
38909;SDS011;24676;51.360;12.354;2023-04-02T04:33:19;3.63;;;2.05;;
38909;SDS011;24676;51.360;12.354;2023-04-02T04:36:17;7.43;;;2.63;;
38909;SDS011;24676;51.360;12.354;2023-04-02T04:39:12;1.17;;;1.08;;
38909;SDS011;24676;51.360;12.354;2023-04-02T04:42:00;2.15;;;1.52;;
38909;SDS011;24676;51.360;12.354;2023-04-02T04:48:22;3.88;;;2.22;;
38909;SDS011;24676;51.360;12.354;2023-04-02T04:54:09;2.92;;;1.33;;
38909;SDS011;24676;51.360;12.354;2023-04-02T04:56:58;4.50;;;2.60;;
38909;SDS011;24676;51.360;12.354;2023-04-02T04:59:47;3.42;;;1.48;;
38909;SDS011;24676;51.360;12.354;2023-04-02T05:02:45;1.95;;;1.73;;
38909;SDS011;24676;51.360;12.354;2023-04-02T05:05:36;2.30;;;2.15;;
38909;SDS011;24676;51.360;12.354;2023-04-02T05:08:27;0.95;;;0.93;;
38909;SDS011;24676;51.360;12.354;2023-04-02T05:11:25;3.13;;;1.30;;
38909;SDS011;24676;51.360;12.354;2023-04-02T05:31:57;1.23;;;1.13;;
38909;SDS011;24676;51.360;12.354;2023-04-02T05:34:57;0.77;;;0.70;;
38909;SDS011;24676;51.360;12.354;2023-04-02T05:37:42;6.57;;;1.63;;
38909;SDS011;24676;51.360;12.354;2023-04-02T05:40:39;3.85;;;1.38;;
38909;SDS011;24676;51.360;12.354;2023-04-02T05:43:27;2.58;;;0.95;;
38909;SDS011;24676;51.360;12.354;2023-04-02T05:46:19;2.17;;;1.30;;
38909;SDS011;24676;51.360;12.354;2023-04-02T05:49:12;1.27;;;1.17;;
38909;SDS011;24676;51.360;12.354;2023-04-02T05:52:07;1.17;;;1.15;;
38909;SDS011;24676;51.360;12.354;2023-04-02T05:57:59;1.20;;;1.10;;
38909;SDS011;24676;51.360;12.354;2023-04-02T06:07:22;3.95;;;1.15;;
38909;SDS011;24676;51.360;12.354;2023-04-02T06:10:18;0.98;;;0.88;;
38909;SDS011;24676;51.360;12.354;2023-04-02T06:13:07;1.95;;;1.20;;
38909;SDS011;24676;51.360;12.354;2023-04-02T06:15:54;1.15;;;1.05;;
38909;SDS011;24676;51.360;12.354;2023-04-02T06:18:39;0.77;;;0.77;;
38909;SDS011;24676;51.360;12.354;2023-04-02T06:21:24;2.03;;;1.20;;
38909;SDS011;24676;51.360;12.354;2023-04-02T06:24:09;1.02;;;0.80;;
38909;SDS011;24676;51.360;12.354;2023-04-02T06:26:58;1.00;;;0.60;;
38909;SDS011;24676;51.360;12.354;2023-04-02T06:29:48;1.60;;;1.50;;
38909;SDS011;24676;51.360;12.354;2023-04-02T06:32:35;1.63;;;1.40;;
38909;SDS011;24676;51.360;12.354;2023-04-02T06:35:20;0.40;;;0.40;;
38909;SDS011;24676;51.360;12.354;2023-04-02T06:38:05;1.67;;;0.88;;
38909;SDS011;24676;51.360;12.354;2023-04-02T06:40:57;1.65;;;0.70;;
38909;SDS011;24676;51.360;12.354;2023-04-02T06:43:51;1.20;;;1.05;;
38909;SDS011;24676;51.360;12.354;2023-04-02T06:46:44;2.28;;;0.98;;
38909;SDS011;24676;51.360;12.354;2023-04-02T06:58:01;1.75;;;0.98;;
38909;SDS011;24676;51.360;12.354;2023-04-02T07:00:46;1.58;;;0.63;;
38909;SDS011;24676;51.360;12.354;2023-04-02T07:03:32;2.75;;;1.15;;
38909;SDS011;24676;51.360;12.354;2023-04-02T07:06:18;0.50;;;0.45;;
38909;SDS011;24676;51.360;12.354;2023-04-02T07:09:04;0.98;;;0.70;;
38909;SDS011;24676;51.360;12.354;2023-04-02T07:11:49;1.70;;;1.08;;
38909;SDS011;24676;51.360;12.354;2023-04-02T07:14:33;0.70;;;0.55;;
38909;SDS011;24676;51.360;12.354;2023-04-02T07:17:18;2.22;;;0.70;;
38909;SDS011;24676;51.360;12.354;2023-04-02T07:20:04;3.25;;;0.98;;
38909;SDS011;24676;51.360;12.354;2023-04-02T07:22:49;0.52;;;0.45;;
38909;SDS011;24676;51.360;12.354;2023-04-02T07:25:34;1.08;;;1.02;;
38909;SDS011;24676;51.360;12.354;2023-04-02T07:28:18;0.47;;;0.38;;
38909;SDS011;24676;51.360;12.354;2023-04-02T07:31:03;1.17;;;0.47;;
38909;SDS011;24676;51.360;12.354;2023-04-02T07:33:53;1.52;;;1.42;;
38909;SDS011;24676;51.360;12.354;2023-04-02T07:36:42;0.75;;;0.60;;
38909;SDS011;24676;51.360;12.354;2023-04-02T07:39:26;0.30;;;0.30;;
38909;SDS011;24676;51.360;12.354;2023-04-02T07:42:10;1.42;;;1.15;;
38909;SDS011;24676;51.360;12.354;2023-04-02T07:44:55;3.15;;;0.38;;
38909;SDS011;24676;51.360;12.354;2023-04-02T07:47:39;3.30;;;0.28;;
38909;SDS011;24676;51.360;12.354;2023-04-02T07:50:24;0.22;;;0.22;;
38909;SDS011;24676;51.360;12.354;2023-04-02T07:53:14;0.32;;;0.30;;
38909;SDS011;24676;51.360;12.354;2023-04-02T07:56:13;0.30;;;0.30;;
38909;SDS011;24676;51.360;12.354;2023-04-02T07:58:58;0.20;;;0.20;;
38909;SDS011;24676;51.360;12.354;2023-04-02T08:01:43;0.10;;;0.10;;
38909;SDS011;24676;51.360;12.354;2023-04-02T08:04:27;1.05;;;0.95;;
38909;SDS011;24676;51.360;12.354;2023-04-02T08:07:11;0.38;;;0.38;;
38909;SDS011;24676;51.360;12.354;2023-04-02T08:09:55;0.88;;;0.60;;
38909;SDS011;24676;51.360;12.354;2023-04-02T08:12:40;0.68;;;0.68;;
38909;SDS011;24676;51.360;12.354;2023-04-02T08:15:24;0.50;;;0.50;;
38909;SDS011;24676;51.360;12.354;2023-04-02T08:18:08;0.35;;;0.30;;
38909;SDS011;24676;51.360;12.354;2023-04-02T08:20:53;0.40;;;0.32;;
38909;SDS011;24676;51.360;12.354;2023-04-02T08:23:38;0.82;;;0.30;;
38909;SDS011;24676;51.360;12.354;2023-04-02T08:26:22;0.13;;;0.13;;
38909;SDS011;24676;51.360;12.354;2023-04-02T08:29:06;0.20;;;0.20;;
38909;SDS011;24676;51.360;12.354;2023-04-02T08:31:50;0.85;;;0.30;;
38909;SDS011;24676;51.360;12.354;2023-04-02T08:34:35;0.60;;;0.50;;
38909;SDS011;24676;51.360;12.354;2023-04-02T08:37:19;1.55;;;0.47;;
38909;SDS011;24676;51.360;12.354;2023-04-02T08:40:04;0.32;;;0.32;;
38909;SDS011;24676;51.360;12.354;2023-04-02T08:49:12;0.47;;;0.32;;
38909;SDS011;24676;51.360;12.354;2023-04-02T08:51:59;2.55;;;0.55;;
38909;SDS011;24676;51.360;12.354;2023-04-02T08:54:44;0.30;;;0.25;;
38909;SDS011;24676;51.360;12.354;2023-04-02T08:57:43;5.20;;;0.90;;
38909;SDS011;24676;51.360;12.354;2023-04-02T09:00:40;0.93;;;0.60;;
38909;SDS011;24676;51.360;12.354;2023-04-02T09:03:31;0.70;;;0.70;;
38909;SDS011;24676;51.360;12.354;2023-04-02T09:06:21;0.55;;;0.45;;
38909;SDS011;24676;51.360;12.354;2023-04-02T09:09:06;0.40;;;0.40;;
38909;SDS011;24676;51.360;12.354;2023-04-02T09:11:56;0.40;;;0.40;;
38909;SDS011;24676;51.360;12.354;2023-04-02T09:14:45;1.25;;;0.47;;
38909;SDS011;24676;51.360;12.354;2023-04-02T09:17:35;0.60;;;0.47;;
38909;SDS011;24676;51.360;12.354;2023-04-02T09:20:23;0.80;;;0.40;;
38909;SDS011;24676;51.360;12.354;2023-04-02T09:23:21;5.00;;;1.13;;
38909;SDS011;24676;51.360;12.354;2023-04-02T09:26:21;2.95;;;0.68;;
38909;SDS011;24676;51.360;12.354;2023-04-02T09:29:34;0.30;;;0.30;;
38909;SDS011;24676;51.360;12.354;2023-04-02T09:35:31;0.40;;;0.40;;
38909;SDS011;24676;51.360;12.354;2023-04-02T09:38:27;0.50;;;0.50;;
38909;SDS011;24676;51.360;12.354;2023-04-02T09:41:20;0.75;;;0.30;;
38909;SDS011;24676;51.360;12.354;2023-04-02T09:44:18;1.35;;;0.43;;
38909;SDS011;24676;51.360;12.354;2023-04-02T09:47:08;1.23;;;0.80;;
38909;SDS011;24676;51.360;12.354;2023-04-02T09:56:19;0.52;;;0.52;;
38909;SDS011;24676;51.360;12.354;2023-04-02T10:01:57;1.80;;;0.80;;
38909;SDS011;24676;51.360;12.354;2023-04-02T10:04:46;3.13;;;0.50;;
38909;SDS011;24676;51.360;12.354;2023-04-02T10:07:36;0.88;;;0.38;;
38909;SDS011;24676;51.360;12.354;2023-04-02T10:10:30;0.40;;;0.30;;
38909;SDS011;24676;51.360;12.354;2023-04-02T10:16:14;1.00;;;0.70;;
38909;SDS011;24676;51.360;12.354;2023-04-02T10:19:00;1.23;;;0.67;;
38909;SDS011;24676;51.360;12.354;2023-04-02T10:21:55;0.75;;;0.73;;
38909;SDS011;24676;51.360;12.354;2023-04-02T10:24:43;1.02;;;0.52;;
38909;SDS011;24676;51.360;12.354;2023-04-02T10:27:38;0.70;;;0.50;;
38909;SDS011;24676;51.360;12.354;2023-04-02T10:33:41;1.48;;;1.02;;
38909;SDS011;24676;51.360;12.354;2023-04-02T10:39:36;0.47;;;0.43;;
38909;SDS011;24676;51.360;12.354;2023-04-02T10:42:34;3.28;;;0.70;;
38909;SDS011;24676;51.360;12.354;2023-04-02T10:45:45;3.58;;;0.35;;
38909;SDS011;24676;51.360;12.354;2023-04-02T10:48:43;0.73;;;0.73;;
38909;SDS011;24676;51.360;12.354;2023-04-02T10:57:35;0.80;;;0.70;;
38909;SDS011;24676;51.360;12.354;2023-04-02T11:00:24;0.50;;;0.40;;
38909;SDS011;24676;51.360;12.354;2023-04-02T11:06:26;1.00;;;0.65;;
38909;SDS011;24676;51.360;12.354;2023-04-02T11:12:04;2.50;;;0.82;;
38909;SDS011;24676;51.360;12.354;2023-04-02T11:14:51;0.57;;;0.52;;
38909;SDS011;24676;51.360;12.354;2023-04-02T11:17:38;0.43;;;0.10;;
38909;SDS011;24676;51.360;12.354;2023-04-02T11:27:16;1.70;;;0.90;;
38909;SDS011;24676;51.360;12.354;2023-04-02T11:33:22;0.30;;;0.30;;
38909;SDS011;24676;51.360;12.354;2023-04-02T11:52:19;0.17;;;0.17;;
38909;SDS011;24676;51.360;12.354;2023-04-02T11:58:19;0.73;;;0.73;;
38909;SDS011;24676;51.360;12.354;2023-04-02T12:10:22;2.75;;;0.40;;
38909;SDS011;24676;51.360;12.354;2023-04-02T12:13:18;0.63;;;0.63;;
38909;SDS011;24676;51.360;12.354;2023-04-02T12:16:08;9.75;;;2.05;;
38909;SDS011;24676;51.360;12.354;2023-04-02T12:18:56;0.10;;;0.10;;
38909;SDS011;24676;51.360;12.354;2023-04-02T12:21:44;0.20;;;0.20;;
38909;SDS011;24676;51.360;12.354;2023-04-02T12:24:30;1.43;;;0.40;;
38909;SDS011;24676;51.360;12.354;2023-04-02T12:27:23;2.72;;;0.93;;
38909;SDS011;24676;51.360;12.354;2023-04-02T12:30:17;0.95;;;0.73;;
38909;SDS011;24676;51.360;12.354;2023-04-02T12:38:58;4.13;;;1.15;;
38909;SDS011;24676;51.360;12.354;2023-04-02T12:41:42;0.75;;;0.70;;
38909;SDS011;24676;51.360;12.354;2023-04-02T12:44:27;1.38;;;0.32;;
38909;SDS011;24676;51.360;12.354;2023-04-02T12:47:12;0.40;;;0.20;;
38909;SDS011;24676;51.360;12.354;2023-04-02T12:49:57;0.43;;;0.15;;
38909;SDS011;24676;51.360;12.354;2023-04-02T12:52:44;2.05;;;0.17;;
38909;SDS011;24676;51.360;12.354;2023-04-02T12:55:30;0.30;;;0.30;;
38909;SDS011;24676;51.360;12.354;2023-04-02T12:58:26;5.40;;;0.32;;
38909;SDS011;24676;51.360;12.354;2023-04-02T13:01:19;0.57;;;0.47;;
38909;SDS011;24676;51.360;12.354;2023-04-02T13:04:10;0.60;;;0.60;;
38909;SDS011;24676;51.360;12.354;2023-04-02T13:06:55;0.25;;;0.22;;
38909;SDS011;24676;51.360;12.354;2023-04-02T13:09:41;0.70;;;0.35;;
38909;SDS011;24676;51.360;12.354;2023-04-02T13:32:02;0.32;;;0.32;;
38909;SDS011;24676;51.360;12.354;2023-04-02T13:34:48;0.88;;;0.80;;
38909;SDS011;24676;51.360;12.354;2023-04-02T13:37:33;1.05;;;0.32;;
38909;SDS011;24676;51.360;12.354;2023-04-02T13:40:17;3.50;;;0.45;;
38909;SDS011;24676;51.360;12.354;2023-04-02T13:43:02;1.33;;;0.68;;
38909;SDS011;24676;51.360;12.354;2023-04-02T13:45:49;0.80;;;0.80;;
38909;SDS011;24676;51.360;12.354;2023-04-02T13:48:35;0.32;;;0.32;;
38909;SDS011;24676;51.360;12.354;2023-04-02T13:51:20;1.00;;;0.52;;
38909;SDS011;24676;51.360;12.354;2023-04-02T13:54:23;0.68;;;0.68;;
38909;SDS011;24676;51.360;12.354;2023-04-02T13:57:14;0.90;;;0.80;;
38909;SDS011;24676;51.360;12.354;2023-04-02T13:59:58;0.55;;;0.35;;
38909;SDS011;24676;51.360;12.354;2023-04-02T14:02:43;1.17;;;0.65;;
38909;SDS011;24676;51.360;12.354;2023-04-02T14:08:46;0.60;;;0.60;;
38909;SDS011;24676;51.360;12.354;2023-04-02T14:17:39;1.42;;;0.63;;
38909;SDS011;24676;51.360;12.354;2023-04-02T14:20:41;1.20;;;0.68;;
38909;SDS011;24676;51.360;12.354;2023-04-02T14:23:56;0.47;;;0.47;;
38909;SDS011;24676;51.360;12.354;2023-04-02T14:27:02;0.50;;;0.47;;
38909;SDS011;24676;51.360;12.354;2023-04-02T14:33:01;0.45;;;0.43;;
38909;SDS011;24676;51.360;12.354;2023-04-02T14:36:09;0.55;;;0.50;;
38909;SDS011;24676;51.360;12.354;2023-04-02T14:41:59;2.53;;;1.13;;
38909;SDS011;24676;51.360;12.354;2023-04-02T14:44:49;0.35;;;0.35;;
38909;SDS011;24676;51.360;12.354;2023-04-02T14:47:42;4.82;;;1.15;;
38909;SDS011;24676;51.360;12.354;2023-04-02T14:50:32;0.63;;;0.40;;
38909;SDS011;24676;51.360;12.354;2023-04-02T14:53:46;0.40;;;0.22;;
38909;SDS011;24676;51.360;12.354;2023-04-02T14:56:26;0.73;;;0.47;;
38909;SDS011;24676;51.360;12.354;2023-04-02T15:02:27;2.03;;;1.80;;
38909;SDS011;24676;51.360;12.354;2023-04-02T15:05:34;0.35;;;0.32;;
38909;SDS011;24676;51.360;12.354;2023-04-02T15:14:22;0.45;;;0.45;;
38909;SDS011;24676;51.360;12.354;2023-04-02T15:17:14;2.75;;;1.25;;
38909;SDS011;24676;51.360;12.354;2023-04-02T15:20:01;1.20;;;0.60;;
38909;SDS011;24676;51.360;12.354;2023-04-02T15:23:06;2.28;;;0.47;;
38909;SDS011;24676;51.360;12.354;2023-04-02T15:32:23;0.65;;;0.30;;
38909;SDS011;24676;51.360;12.354;2023-04-02T15:35:35;0.32;;;0.32;;
38909;SDS011;24676;51.360;12.354;2023-04-02T15:41:56;0.40;;;0.40;;
38909;SDS011;24676;51.360;12.354;2023-04-02T15:48:10;0.57;;;0.40;;
38909;SDS011;24676;51.360;12.354;2023-04-02T15:57:28;1.45;;;0.50;;
38909;SDS011;24676;51.360;12.354;2023-04-02T16:00:29;1.65;;;0.85;;
38909;SDS011;24676;51.360;12.354;2023-04-02T16:12:40;0.70;;;0.70;;
38909;SDS011;24676;51.360;12.354;2023-04-02T16:15:39;2.22;;;1.63;;
38909;SDS011;24676;51.360;12.354;2023-04-02T16:21:26;6.03;;;0.82;;
38909;SDS011;24676;51.360;12.354;2023-04-02T16:24:15;1.60;;;0.63;;
38909;SDS011;24676;51.360;12.354;2023-04-02T16:42:34;2.65;;;0.73;;
38909;SDS011;24676;51.360;12.354;2023-04-02T16:45:51;3.88;;;1.17;;
38909;SDS011;24676;51.360;12.354;2023-04-02T18:22:19;1.87;;;0.67;;
38909;SDS011;24676;51.360;12.354;2023-04-02T18:28:21;0.80;;;0.55;;
38909;SDS011;24676;51.360;12.354;2023-04-02T21:10:31;0.50;;;0.40;;
38909;SDS011;24676;51.360;12.354;2023-04-02T21:13:15;1.27;;;0.32;;
38909;SDS011;24676;51.360;12.354;2023-04-02T21:15:59;1.45;;;0.28;;
38909;SDS011;24676;51.360;12.354;2023-04-02T21:18:44;0.28;;;0.28;;
38909;SDS011;24676;51.360;12.354;2023-04-02T21:21:29;0.55;;;0.30;;
38909;SDS011;24676;51.360;12.354;2023-04-02T21:24:14;0.20;;;0.20;;
38909;SDS011;24676;51.360;12.354;2023-04-02T21:35:11;3.30;;;0.90;;
38909;SDS011;24676;51.360;12.354;2023-04-02T21:37:55;0.80;;;0.80;;
38909;SDS011;24676;51.360;12.354;2023-04-02T21:40:40;0.73;;;0.28;;
38909;SDS011;24676;51.360;12.354;2023-04-02T21:43:24;0.73;;;0.40;;
38909;SDS011;24676;51.360;12.354;2023-04-02T21:46:08;1.40;;;0.85;;
38909;SDS011;24676;51.360;12.354;2023-04-02T21:48:54;1.42;;;0.47;;
38909;SDS011;24676;51.360;12.354;2023-04-02T21:51:41;0.30;;;0.30;;
38909;SDS011;24676;51.360;12.354;2023-04-02T21:54:26;0.22;;;0.20;;
38909;SDS011;24676;51.360;12.354;2023-04-02T22:24:39;1.27;;;0.47;;
38909;SDS011;24676;51.360;12.354;2023-04-02T22:27:23;1.27;;;0.57;;
38909;SDS011;24676;51.360;12.354;2023-04-02T22:30:08;0.47;;;0.20;;
38909;SDS011;24676;51.360;12.354;2023-04-02T22:32:52;2.22;;;0.52;;
38909;SDS011;24676;51.360;12.354;2023-04-02T22:35:37;5.15;;;1.55;;
38909;SDS011;24676;51.360;12.354;2023-04-02T22:38:21;0.20;;;0.20;;
38909;SDS011;24676;51.360;12.354;2023-04-02T22:41:10;3.38;;;0.65;;
38909;SDS011;24676;51.360;12.354;2023-04-02T22:43:56;0.47;;;0.28;;
38909;SDS011;24676;51.360;12.354;2023-04-02T22:46:41;1.55;;;0.28;;
38909;SDS011;24676;51.360;12.354;2023-04-02T22:49:26;0.40;;;0.40;;
38909;SDS011;24676;51.360;12.354;2023-04-02T22:54:54;2.05;;;1.15;;
38909;SDS011;24676;51.360;12.354;2023-04-02T22:57:39;0.08;;;0.08;;
38909;SDS011;24676;51.360;12.354;2023-04-02T23:00:24;1.75;;;0.20;;
38909;SDS011;24676;51.360;12.354;2023-04-02T23:03:08;0.85;;;0.40;;
38909;SDS011;24676;51.360;12.354;2023-04-02T23:06:02;0.20;;;0.10;;
38909;SDS011;24676;51.360;12.354;2023-04-02T23:08:50;1.45;;;0.77;;
38909;SDS011;24676;51.360;12.354;2023-04-02T23:11:34;0.22;;;0.10;;
38909;SDS011;24676;51.360;12.354;2023-04-02T23:14:19;1.02;;;0.50;;
38909;SDS011;24676;51.360;12.354;2023-04-02T23:17:04;1.50;;;0.38;;
38909;SDS011;24676;51.360;12.354;2023-04-02T23:19:49;3.67;;;0.52;;
38909;SDS011;24676;51.360;12.354;2023-04-02T23:22:33;1.65;;;0.20;;
38909;SDS011;24676;51.360;12.354;2023-04-02T23:33:33;0.38;;;0.20;;
38909;SDS011;24676;51.360;12.354;2023-04-02T23:39:03;0.40;;;0.40;;
